Terminal Aerodrome Forecast
Issued by NWS Chicago, IL

Home | Current Version | Previous Version | Graphics & Text | Print | Product List | Glossary Off
Versions: 1 2 3 4 5 6 7 8 9 10 11 12 13 14 15 16 17 18 19 20 21 22 23 24 25 26 27 28 29 30 31

000
FTUS43 KLOT 191135
TAFRFD
TAF
KRFD 191135Z 1912/2012 09012KT P6SM SCT040 BKN080 BKN250
     FM191500 06012G17KT P6SM OVC070
     FM192000 05015KT 6SM BR VCSH BKN040 OVC050
     FM192200 03012KT 5SM -SHRA BR OVC015
     FM200300 36006KT 6SM -SHRA OVC008
     FM200600 29008KT 6SM BR VCSH BKN008 OVC015=

USA.gov is the U.S. government's official web portal to all federal, state and local government web resources and services.